Terri-ann — WBD3593 — position and weather

sailwx.info

Track history (hours):
 
Tides and Currents Weather Stations Pressure Air Temp Water Temp Dewpoint Dewpoint Depression Visibility Wind Speed Wind Dir Waves Ship Positions

Terri-ann

Owner: CALICO LOBSTER CO INC, SANDWICH, MA. More information available from US FCC via Universal Licensing System and Coast Guard Vessel Documentation Center.

Last reported at 2015-May-30 12:33 UTC. Time now 2015-May-30 14:33 UTC.
Position N 41°44' W 070°37'.

Length 21 m.

Type: Fishing. MMSI: 367149920.

Date/timePositionNaut miles runAvg speedWind from/ knotsBaromVisibWave heightAir tempDewpointWater temp
2015-May-30 12:33N 41°44' W 070°37'9 8.9
2015-May-30 11:30N 41°37' W 070°44'9 9.2
2015-May-30 10:33N 41°29' W 070°50'9 8.7
2015-May-30 09:33N 41°21' W 070°52'10 9.5
2015-May-30 08:33N 41°13' W 070°44'9 9.3
2015-May-30 07:33N 41°06' W 070°36'10 9.2
2015-May-30 06:30N 40°58' W 070°29'9 9.0
2015-May-30 05:30N 40°51' W 070°22'9 8.9
2015-May-30 04:30N 40°43' W 070°15'9 8.7
2015-May-30 03:28N 40°36' W 070°08'26 8.9
2015-May-30 00:32N 40°15' W 069°48'68 1.4
2015-May-27 23:20N 41°10' W 070°40'9 9.0
2015-May-27 22:21N 41°17' W 070°47'  
2015-May-24 04:33N 41°23' W 070°51'8 8.4
2015-May-24 03:33N 41°16' W 070°46'9 8.6
2015-May-24 02:33N 41°09' W 070°39'9 8.6
2015-May-24 01:33N 41°02' W 070°32'9 8.4
2015-May-24 00:32N 40°55' W 070°26'  
Track history (hours):
 
Tides and Currents Weather Stations Pressure Air Temp Water Temp Dewpoint Dewpoint Depression Visibility Wind Speed Wind Dir Waves Ship Positions

Terri-ann

Owner: CALICO LOBSTER CO INC, SANDWICH, MA. More information available from US FCC via Universal Licensing System and Coast Guard Vessel Documentation Center.

Last reported at 2015-May-30 12:33 UTC. Time now 2015-May-30 14:33 UTC.
Position N 41°44' W 070°37'.

Length 21 m.

Type: Fishing. MMSI: 367149920.

Date/timePositionNaut miles runAvg speedWind from/ knotsBaromVisibWave heightAir tempDewpointWater temp
2015-May-30 12:33N 41°44' W 070°37'9 8.9
2015-May-30 11:30N 41°37' W 070°44'9 9.2
2015-May-30 10:33N 41°29' W 070°50'9 8.7
2015-May-30 09:33N 41°21' W 070°52'10 9.5
2015-May-30 08:33N 41°13' W 070°44'9 9.3
2015-May-30 07:33N 41°06' W 070°36'10 9.2
2015-May-30 06:30N 40°58' W 070°29'9 9.0
2015-May-30 05:30N 40°51' W 070°22'9 8.9
2015-May-30 04:30N 40°43' W 070°15'9 8.7
2015-May-30 03:28N 40°36' W 070°08'26 8.9
2015-May-30 00:32N 40°15' W 069°48'68 1.4
2015-May-27 23:20N 41°10' W 070°40'9 9.0
2015-May-27 22:21N 41°17' W 070°47'  
2015-May-24 04:33N 41°23' W 070°51'8 8.4
2015-May-24 03:33N 41°16' W 070°46'9 8.6
2015-May-24 02:33N 41°09' W 070°39'9 8.6
2015-May-24 01:33N 41°02' W 070°32'9 8.4
2015-May-24 00:32N 40°55' W 070°26'  

Dump ship's entire track history